Time;durP1;ratioP1;P1;durP2;ratioP2;P2;SDS_P1;SDS_P2;PMS_P1;PMS_P2;Temp;Humidity;BMP_temperature;BMP_pressure;BME280_temperature;BME280_humidity;BME280_pressure;Samples;Min_cycle;Max_cycle;Signal;HPM_P1;HPM_P2
2022/12/30 00:01:55;;;;;;;0.80;0.80;;;17.50;68.00;;;;;;5078072;28;43993;-78
2022/12/30 00:04:23;;;;;;;1.10;1.10;;;17.60;68.00;;;;;;5068784;28;43520;-77
2022/12/30 00:06:51;;;;;;;1.10;1.10;;;17.70;67.70;;;;;;5088088;28;43612;-75
2022/12/30 00:09:20;;;;;;;0.90;0.90;;;17.70;67.30;;;;;;5081728;28;43387;-75
2022/12/30 00:11:48;;;;;;;0.83;0.83;;;17.70;67.20;;;;;;5087715;28;43391;-74
2022/12/30 00:33:47;;;;;;;0.90;0.90;;;17.50;67.80;;;;;;5087974;28;43401;-77
2022/12/30 00:36:16;;;;;;;0.90;0.90;;;17.60;67.70;;;;;;5088043;28;43408;-78
2022/12/30 00:38:43;;;;;;;0.90;0.90;;;17.60;67.70;;;;;;5069205;28;45674;-77
2022/12/30 00:43:58;;;;;;;0.90;0.90;;;17.60;67.80;;;;;;5087202;28;43427;-76
2022/12/30 00:46:26;;;;;;;0.90;0.90;;;17.50;67.90;;;;;;5087994;27;43550;-77
2022/12/30 00:57:11;;;;;;;1.00;1.00;;;17.50;67.80;;;;;;5083745;28;43481;-76
2022/12/30 00:59:39;;;;;;;0.93;0.93;;;17.50;67.90;;;;;;5068943;28;45713;-76
2022/12/30 01:02:07;;;;;;;0.90;0.90;;;17.50;68.00;;;;;;5068208;28;43578;-76
2022/12/30 01:04:36;;;;;;;1.00;1.00;;;17.50;68.10;;;;;;5087501;28;43439;-74
2022/12/30 01:07:03;;;;;;;0.97;0.97;;;17.60;67.70;;;;;;5087790;28;44031;-75
2022/12/30 01:09:31;;;;;;;0.90;0.90;;;17.80;67.40;;;;;;5087349;28;43858;-77
2022/12/30 01:12:08;;;;;;;0.90;0.90;;;17.90;67.00;;;;;;5084514;28;43920;-77
2022/12/30 01:14:38;;;;;;;0.90;0.90;;;17.90;66.70;;;;;;5068544;28;43632;-76
2022/12/30 01:17:07;;;;;;;1.10;1.10;;;17.80;66.80;;;;;;5068339;28;43531;-77
2022/12/30 01:19:35;;;;;;;0.97;0.97;;;17.80;67.00;;;;;;5087252;28;43932;-77
2022/12/30 01:22:03;;;;;;;1.00;1.00;;;17.80;66.90;;;;;;5087337;28;43430;-75
2022/12/30 01:24:31;;;;;;;0.90;0.90;;;17.80;67.00;;;;;;5084989;28;44082;-76
2022/12/30 01:26:59;;;;;;;0.90;0.90;;;17.70;67.10;;;;;;5068695;28;43400;-76
2022/12/30 01:29:28;;;;;;;0.87;0.87;;;17.70;67.20;;;;;;5086266;27;43916;-74
2022/12/30 01:31:58;;;;;;;1.00;1.00;;;17.60;67.40;;;;;;5087121;28;43502;-75
2022/12/30 01:34:26;;;;;;;0.90;0.90;;;17.60;67.60;;;;;;5087071;28;43314;-77
2022/12/30 01:36:54;;;;;;;1.10;1.10;;;17.60;67.50;;;;;;5068639;28;43509;-76
2022/12/30 01:39:22;;;;;;;0.80;0.80;;;17.60;67.50;;;;;;5085556;28;43952;-77
2022/12/30 01:41:50;;;;;;;0.93;0.93;;;17.60;67.70;;;;;;5086902;28;43446;-75
2022/12/30 01:44:56;;;;;;;1.00;1.00;;;17.50;67.60;;;;;;5086820;28;44019;-76
2022/12/30 01:47:29;;;;;;;0.97;0.97;;;17.50;67.80;;;;;;5087155;28;43425;-77
2022/12/30 01:49:59;;;;;;;0.90;0.90;;;17.50;67.80;;;;;;5086503;28;43596;-75
2022/12/30 01:52:28;;;;;;;1.00;1.00;;;17.50;67.70;;;;;;5087743;27;43912;-76
2022/12/30 01:54:59;;;;;;;0.80;0.80;;;17.50;67.70;;;;;;5068210;28;43461;-76
2022/12/30 01:57:27;;;;;;;1.00;1.00;;;17.50;67.80;;;;;;5086152;27;43495;-76
2022/12/30 01:59:55;;;;;;;0.73;0.73;;;17.50;67.80;;;;;;5086558;28;43931;-76
2022/12/30 02:02:23;;;;;;;0.90;0.90;;;17.50;68.00;;;;;;5086785;28;43434;-76
2022/12/30 02:04:52;;;;;;;1.00;1.00;;;17.50;68.00;;;;;;5086692;28;43427;-77
2022/12/30 02:07:22;;;;;;;0.70;0.70;;;17.60;67.70;;;;;;5062091;28;44478;-76
2022/12/30 02:09:50;;;;;;;1.00;1.00;;;17.80;67.40;;;;;;5065227;28;45891;-75
2022/12/30 02:12:18;;;;;;;0.83;0.83;;;17.80;67.00;;;;;;5086334;28;43517;-76
2022/12/30 02:14:46;;;;;;;1.20;1.10;;;17.80;66.90;;;;;;5085989;28;43482;-74
2022/12/30 02:17:17;;;;;;;0.80;0.80;;;17.80;67.00;;;;;;5082347;28;43378;-76
2022/12/30 02:20:11;;;;;;;0.97;0.97;;;17.80;67.30;;;;;;5086168;28;43878;-74
2022/12/30 02:22:49;;;;;;;0.80;0.80;;;17.70;67.10;;;;;;5036782;28;43489;-77
2022/12/30 02:25:38;;;;;;;0.80;0.80;;;17.70;67.10;;;;;;5081706;28;44022;-74
2022/12/30 02:28:30;;;;;;;1.00;1.00;;;17.70;67.30;;;;;;5083446;28;43618;-77
2022/12/30 02:31:14;;;;;;;0.90;0.90;;;17.60;67.40;;;;;;5081017;28;44041;-76
2022/12/30 02:33:43;;;;;;;0.70;0.70;;;17.60;67.60;;;;;;5085920;28;43964;-76
2022/12/30 02:36:14;;;;;;;0.80;0.80;;;17.60;67.60;;;;;;5081309;28;44042;-76
2022/12/30 02:38:44;;;;;;;1.00;1.00;;;17.60;67.50;;;;;;5086548;28;43395;-76
2022/12/30 02:46:50;;;;;;;0.90;0.90;;;17.50;67.70;;;;;;5086267;27;43943;-75
2022/12/30 02:49:18;;;;;;;0.90;0.90;;;17.50;68.00;;;;;;5071185;28;43500;-75
2022/12/30 02:54:31;;;;;;;1.40;0.83;;;17.70;67.60;;;;;;5089345;28;43354;-77
2022/12/30 02:56:59;;;;;;;0.97;0.97;;;17.70;67.20;;;;;;5089120;28;43520;-74
2022/12/30 03:05:27;;;;;;;0.70;0.70;;;17.70;67.50;;;;;;5088975;28;43659;-74
2022/12/30 03:07:57;;;;;;;1.00;1.00;;;17.70;67.50;;;;;;5089527;28;43408;-76
2022/12/30 03:13:16;;;;;;;1.00;1.00;;;17.60;67.40;;;;;;5089132;28;43912;-75
2022/12/30 03:15:47;;;;;;;0.90;0.90;;;17.60;67.60;;;;;;5070279;28;44863;-74
2022/12/30 03:18:17;;;;;;;0.80;0.80;;;17.50;67.70;;;;;;5088519;28;43458;-77
2022/12/30 03:20:45;;;;;;;0.80;0.80;;;17.50;67.80;;;;;;5089421;28;44131;-76
2022/12/30 03:28:43;;;;;;;0.80;0.80;;;17.50;67.80;;;;;;5089135;28;44040;-77
2022/12/30 03:31:13;;;;;;;1.00;1.00;;;17.50;67.80;;;;;;5070705;28;43671;-73
2022/12/30 03:33:42;;;;;;;0.80;0.80;;;17.50;68.00;;;;;;5087893;28;44427;-78
2022/12/30 03:36:12;;;;;;;0.90;0.90;;;17.50;68.00;;;;;;5088355;28;43818;-76
2022/12/30 03:38:42;;;;;;;0.90;0.90;;;17.60;67.80;;;;;;5089183;28;43431;-77
2022/12/30 03:41:10;;;;;;;0.87;0.87;;;17.70;67.40;;;;;;5088779;28;43910;-77
2022/12/30 03:43:38;;;;;;;0.90;0.90;;;17.80;67.10;;;;;;5069539;28;45870;-74
2022/12/30 03:46:06;;;;;;;0.87;0.87;;;17.70;66.90;;;;;;5086075;28;43371;-76
2022/12/30 03:48:34;;;;;;;1.10;1.10;;;17.70;67.20;;;;;;5068012;28;43410;-77
2022/12/30 03:51:04;;;;;;;1.00;0.90;;;17.70;67.30;;;;;;5089027;28;43445;-77
2022/12/30 03:53:32;;;;;;;0.83;0.83;;;17.70;67.20;;;;;;5087762;27;43956;-76
2022/12/30 03:56:00;;;;;;;0.80;0.80;;;17.70;67.20;;;;;;5088257;28;43772;-78
2022/12/30 03:58:28;;;;;;;0.80;0.80;;;17.60;67.30;;;;;;5088469;28;43424;-77
2022/12/30 04:00:56;;;;;;;0.80;0.80;;;17.60;67.40;;;;;;5088589;28;43443;-77
2022/12/30 04:03:26;;;;;;;0.80;0.80;;;17.60;67.60;;;;;;5088358;28;43861;-70
2022/12/30 04:05:54;;;;;;;1.00;1.00;;;17.60;67.70;;;;;;5088697;28;43426;-76
2022/12/30 04:08:24;;;;;;;1.00;1.00;;;17.60;67.60;;;;;;5088512;28;43431;-77
2022/12/30 04:10:52;;;;;;;0.90;0.90;;;17.60;67.70;;;;;;5088984;28;43463;-77
2022/12/30 04:13:19;;;;;;;0.70;0.70;;;17.50;67.60;;;;;;5069810;28;45768;-77
2022/12/30 04:15:49;;;;;;;1.10;1.10;;;17.50;67.70;;;;;;5065711;28;44826;-77
2022/12/30 04:18:17;;;;;;;0.90;0.90;;;17.50;68.10;;;;;;5069380;28;43861;-75
2022/12/30 04:20:45;;;;;;;1.00;1.00;;;17.50;68.00;;;;;;5070160;28;43761;-75
2022/12/30 04:23:13;;;;;;;0.90;0.90;;;17.60;67.80;;;;;;5087720;28;43769;-77
2022/12/30 04:25:42;;;;;;;0.90;0.90;;;17.70;67.50;;;;;;5087713;28;43443;-78
2022/12/30 04:28:10;;;;;;;1.00;1.00;;;17.70;67.20;;;;;;5086277;28;43467;-76
2022/12/30 04:30:44;;;;;;;0.80;0.80;;;17.70;67.20;;;;;;5088182;28;43396;-76
2022/12/30 04:33:12;;;;;;;0.97;0.97;;;17.60;67.30;;;;;;5087883;28;43916;-77
2022/12/30 04:35:40;;;;;;;0.80;0.80;;;17.60;67.60;;;;;;5087249;28;43418;-77
2022/12/30 04:38:07;;;;;;;0.90;0.90;;;17.60;67.50;;;;;;5087909;28;44109;-77
2022/12/30 04:40:35;;;;;;;0.90;0.90;;;17.60;67.40;;;;;;5087826;28;43335;-76
2022/12/30 04:43:05;;;;;;;0.70;0.70;;;17.60;67.40;;;;;;5085447;28;43603;-77
2022/12/30 04:45:32;;;;;;;0.80;0.80;;;17.60;67.50;;;;;;5087707;28;43463;-76
2022/12/30 04:48:00;;;;;;;0.90;0.90;;;17.50;67.60;;;;;;5069611;28;43343;-74
2022/12/30 04:50:28;;;;;;;0.93;0.93;;;17.50;67.70;;;;;;5069481;28;43622;-77
2022/12/30 04:52:56;;;;;;;0.80;0.80;;;17.50;67.70;;;;;;5087903;28;43662;-71
2022/12/30 04:55:24;;;;;;;0.60;0.60;;;17.60;67.50;;;;;;5069171;28;44954;-77
2022/12/30 04:57:52;;;;;;;0.80;0.80;;;17.70;67.20;;;;;;5085522;27;43466;-75
2022/12/30 05:00:21;;;;;;;0.70;0.70;;;17.70;67.20;;;;;;5069265;28;43571;-78
2022/12/30 05:02:51;;;;;;;0.70;0.70;;;17.70;67.20;;;;;;5087381;28;43774;-77
2022/12/30 05:05:19;;;;;;;0.60;0.60;;;17.60;67.40;;;;;;5067762;28;44412;-78
2022/12/30 05:07:47;;;;;;;0.73;0.73;;;17.60;67.40;;;;;;5087751;28;43882;-73
2022/12/30 05:10:15;;;;;;;0.83;0.83;;;17.60;67.40;;;;;;5087012;28;43510;-77
2022/12/30 05:12:43;;;;;;;0.70;0.70;;;17.60;67.40;;;;;;5068888;28;46123;-77
2022/12/30 05:15:11;;;;;;;0.97;0.97;;;17.60;67.50;;;;;;5080433;28;43948;-75
2022/12/30 05:17:41;;;;;;;0.77;0.77;;;17.60;67.60;;;;;;5066651;28;43517;-77
2022/12/30 05:20:10;;;;;;;0.77;0.77;;;17.50;67.60;;;;;;5081210;28;43501;-74
2022/12/30 05:22:37;;;;;;;0.80;0.80;;;17.50;67.70;;;;;;5087182;28;43645;-77
2022/12/30 05:27:52;;;;;;;0.77;0.77;;;17.60;67.60;;;;;;5087438;28;43400;-77
2022/12/30 05:30:20;;;;;;;0.80;0.80;;;17.60;67.70;;;;;;5068876;28;43605;-76
2022/12/30 05:32:49;;;;;;;0.60;0.60;;;17.50;67.60;;;;;;5086980;28;43885;-77
2022/12/30 05:35:17;;;;;;;1.23;1.00;;;17.50;67.80;;;;;;5068066;28;44642;-76
2022/12/30 05:37:45;;;;;;;0.80;0.80;;;17.50;67.90;;;;;;5086695;28;43495;-77
2022/12/30 05:40:13;;;;;;;0.80;0.80;;;17.60;67.60;;;;;;5081053;28;43462;-76
2022/12/30 05:42:41;;;;;;;0.80;0.80;;;17.80;67.30;;;;;;5068171;28;45698;-75
2022/12/30 05:45:09;;;;;;;0.90;0.90;;;17.80;66.90;;;;;;5086486;28;43533;-77
2022/12/30 05:47:37;;;;;;;0.80;0.80;;;17.80;66.70;;;;;;5086775;28;43477;-77
2022/12/30 05:50:07;;;;;;;0.87;0.87;;;17.80;66.80;;;;;;5087276;28;43807;-77
2022/12/30 05:52:35;;;;;;;0.90;0.90;;;17.80;67.10;;;;;;5065960;28;45970;-77
2022/12/30 05:55:03;;;;;;;0.90;0.90;;;17.80;67.00;;;;;;5083449;28;43449;-75
2022/12/30 05:57:33;;;;;;;0.70;0.70;;;17.70;67.00;;;;;;5083449;28;44067;-77
2022/12/30 06:00:01;;;;;;;0.80;0.80;;;17.70;67.10;;;;;;5086839;28;44033;-76
2022/12/30 06:02:33;;;;;;;0.87;0.87;;;17.70;67.20;;;;;;5083765;28;43981;-77
2022/12/30 06:05:10;;;;;;;1.17;1.00;;;17.60;67.40;;;;;;5085996;28;43415;-77
2022/12/30 06:07:38;;;;;;;0.70;0.70;;;17.60;67.60;;;;;;5081764;28;43940;-76
2022/12/30 06:10:07;;;;;;;0.63;0.63;;;17.60;67.40;;;;;;5087168;28;43420;-77
2022/12/30 06:12:35;;;;;;;0.70;0.70;;;17.60;67.50;;;;;;5085899;28;43920;-78
2022/12/30 06:15:03;;;;;;;0.80;0.80;;;17.60;67.50;;;;;;5085781;28;43338;-75
2022/12/30 06:17:31;;;;;;;0.77;0.77;;;17.50;67.60;;;;;;5085516;28;43366;-76
2022/12/30 06:19:59;;;;;;;0.80;0.80;;;17.50;67.70;;;;;;5086650;28;43845;-77
2022/12/30 06:22:28;;;;;;;0.67;0.67;;;17.50;67.90;;;;;;5063832;28;45630;-73
2022/12/30 06:24:56;;;;;;;0.70;0.70;;;17.50;67.70;;;;;;5085803;28;43478;-75
2022/12/30 06:27:25;;;;;;;0.70;0.70;;;17.50;67.70;;;;;;5086012;28;43467;-74
2022/12/30 06:29:53;;;;;;;0.70;0.70;;;17.50;67.70;;;;;;5086910;28;43366;-74
2022/12/30 06:32:21;;;;;;;0.80;0.80;;;17.50;67.70;;;;;;5085273;28;43898;-76
2022/12/30 06:34:50;;;;;;;0.90;0.90;;;17.50;67.80;;;;;;5085915;28;43556;-75
2022/12/30 06:37:18;;;;;;;0.80;0.80;;;17.50;68.00;;;;;;5085450;28;43525;-75
2022/12/30 06:39:47;;;;;;;0.80;0.80;;;17.50;67.90;;;;;;5067498;28;43868;-77
2022/12/30 06:42:15;;;;;;;0.70;0.70;;;17.60;67.50;;;;;;5067610;28;46581;-76
2022/12/30 06:44:43;;;;;;;0.73;0.73;;;17.70;67.20;;;;;;5085962;28;43417;-76
2022/12/30 06:47:11;;;;;;;0.83;0.83;;;17.70;67.00;;;;;;5085497;28;43388;-77
2022/12/30 06:49:38;;;;;;;0.70;0.70;;;17.70;67.00;;;;;;5081158;28;43510;-77
2022/12/30 06:52:06;;;;;;;0.80;0.80;;;17.70;67.20;;;;;;5066635;28;46204;-76
2022/12/30 06:54:34;;;;;;;0.70;0.70;;;17.70;67.40;;;;;;5085485;28;43439;-77
2022/12/30 06:57:04;;;;;;;0.70;0.70;;;17.70;67.30;;;;;;5085947;28;44052;-75
2022/12/30 06:59:32;;;;;;;0.80;0.80;;;17.60;67.20;;;;;;5086046;28;43593;-76
2022/12/30 07:02:00;;;;;;;1.00;1.00;;;17.60;67.30;;;;;;5085350;28;43931;-78
2022/12/30 07:04:28;;;;;;;0.73;0.73;;;17.60;67.40;;;;;;5080236;28;43476;-78
2022/12/30 07:06:56;;;;;;;0.80;0.80;;;17.60;67.50;;;;;;5067131;28;43407;-75
2022/12/30 07:09:23;;;;;;;0.90;0.90;;;17.60;67.70;;;;;;5067758;28;43629;-77
2022/12/30 07:11:51;;;;;;;0.80;0.80;;;17.60;67.50;;;;;;5085844;28;43939;-75
2022/12/30 07:14:21;;;;;;;0.80;0.80;;;17.70;67.20;;;;;;5085448;28;43846;-77
2022/12/30 07:16:49;;;;;;;0.90;0.90;;;17.70;66.90;;;;;;5083304;27;43413;-77
2022/12/30 07:19:17;;;;;;;0.70;0.70;;;17.70;66.90;;;;;;5081498;28;43449;-77
2022/12/30 07:21:45;;;;;;;0.80;0.80;;;17.70;67.10;;;;;;5085366;28;43925;-76
2022/12/30 07:24:13;;;;;;;0.90;0.90;;;17.70;67.40;;;;;;5085360;28;43399;-78
2022/12/30 07:26:40;;;;;;;0.97;0.97;;;17.60;67.20;;;;;;5085659;27;43547;-77
2022/12/30 07:29:08;;;;;;;0.87;0.87;;;17.60;67.20;;;;;;5089244;28;43481;-76
2022/12/30 07:31:38;;;;;;;0.80;0.80;;;17.60;67.30;;;;;;5085297;28;43592;-77
2022/12/30 07:34:06;;;;;;;0.73;0.73;;;17.60;67.40;;;;;;5089160;28;43744;-76
2022/12/30 07:36:34;;;;;;;0.70;0.70;;;17.60;67.60;;;;;;5063903;28;43454;-76
2022/12/30 07:39:02;;;;;;;0.87;0.87;;;17.60;67.70;;;;;;5082847;28;43370;-77
2022/12/30 07:41:30;;;;;;;0.80;0.80;;;17.50;67.60;;;;;;5089194;28;43603;-77
2022/12/30 07:43:57;;;;;;;0.60;0.60;;;17.50;67.50;;;;;;5082068;28;43488;-77
2022/12/30 07:46:25;;;;;;;0.60;0.60;;;17.50;67.60;;;;;;5082965;28;43428;-78
2022/12/30 07:48:55;;;;;;;0.80;0.80;;;17.50;67.60;;;;;;5084596;28;43455;-75
2022/12/30 07:51:23;;;;;;;0.80;0.80;;;17.50;67.70;;;;;;5082549;27;43906;-77
2022/12/30 07:53:51;;;;;;;0.60;0.60;;;17.50;68.00;;;;;;5088725;28;43887;-75
2022/12/30 07:56:19;;;;;;;0.80;0.80;;;17.50;67.80;;;;;;5088929;28;43440;-77
2022/12/30 07:58:47;;;;;;;0.73;0.73;;;17.60;67.50;;;;;;5088811;28;43436;-72
2022/12/30 08:01:15;;;;;;;0.80;0.80;;;17.80;67.20;;;;;;5086093;28;43827;-74
2022/12/30 08:03:43;;;;;;;0.83;0.83;;;17.80;66.90;;;;;;5070053;28;44603;-77
2022/12/30 08:06:14;;;;;;;0.70;0.70;;;17.80;67.70;;;;;;5088889;28;43539;-77
2022/12/30 08:08:42;;;;;;;0.90;0.90;;;17.70;67.10;;;;;;5088775;28;43961;-76
2022/12/30 08:11:10;;;;;;;0.83;0.83;;;17.70;67.10;;;;;;5069466;28;45623;-76
2022/12/30 08:13:39;;;;;;;0.70;0.70;;;17.70;67.00;;;;;;5086551;28;43355;-77
2022/12/30 08:16:08;;;;;;;0.90;0.90;;;17.70;67.10;;;;;;5088744;28;43447;-75
2022/12/30 08:18:36;;;;;;;0.70;0.70;;;17.60;67.20;;;;;;5084470;28;43828;-75
2022/12/30 08:21:05;;;;;;;0.80;0.80;;;17.60;67.40;;;;;;5088100;28;43592;-77
2022/12/30 08:23:35;;;;;;;0.90;0.90;;;17.50;67.50;;;;;;5088451;28;43925;-75
2022/12/30 08:26:06;;;;;;;1.00;1.00;;;17.50;67.60;;;;;;5087550;28;43581;-77
2022/12/30 08:28:34;;;;;;;0.90;0.90;;;17.50;67.40;;;;;;5087735;28;43429;-77
2022/12/30 08:31:06;;;;;;;0.90;0.90;;;17.50;67.60;;;;;;5088362;28;43859;-78
2022/12/30 08:33:33;;;;;;;0.60;0.60;;;17.50;67.70;;;;;;5088047;28;43438;-77
2022/12/30 08:36:02;;;;;;;0.70;0.70;;;17.50;67.70;;;;;;5069666;28;43447;-77
2022/12/30 08:38:30;;;;;;;0.60;0.60;;;17.50;67.90;;;;;;5066177;28;43985;-74
2022/12/30 08:41:06;;;;;;;0.50;0.50;;;17.50;67.80;;;;;;5068809;28;45763;-76
2022/12/30 08:43:34;;;;;;;0.70;0.70;;;17.50;67.70;;;;;;5087674;28;44047;-76
2022/12/30 08:46:02;;;;;;;0.70;0.70;;;17.50;67.80;;;;;;5069607;28;43328;-77
2022/12/30 08:48:30;;;;;;;0.93;0.93;;;17.50;67.80;;;;;;5087983;28;43406;-78
2022/12/30 08:50:58;;;;;;;1.00;1.00;;;17.50;67.90;;;;;;5069243;28;45591;-77
2022/12/30 08:53:26;;;;;;;1.40;1.30;;;17.40;67.60;;;;;;5087929;28;44129;-77
2022/12/30 08:56:01;;;;;;;2.63;1.00;;;17.50;67.40;;;;;;5085178;28;43386;-77
2022/12/30 08:58:31;;;;;;;2.23;0.90;;;17.60;67.30;;;;;;5069564;28;43513;-75
2022/12/30 09:00:59;;;;;;;1.90;1.03;;;17.70;66.90;;;;;;5087188;28;43953;-77
2022/12/30 09:03:27;;;;;;;6.03;1.20;;;17.80;66.80;;;;;;5087555;28;44014;-75
2022/12/30 09:05:55;;;;;;;2.50;0.90;;;17.70;66.60;;;;;;5087936;28;43390;-76
2022/12/30 09:08:29;;;;;;;0.93;0.93;;;17.70;66.90;;;;;;5087930;28;44042;-77
2022/12/30 09:11:00;;;;;;;2.20;1.10;;;17.70;67.10;;;;;;5085606;28;43863;-75
2022/12/30 09:13:28;;;;;;;0.90;0.90;;;17.70;67.00;;;;;;5086797;28;43507;-76
2022/12/30 09:15:58;;;;;;;0.80;0.80;;;17.70;67.10;;;;;;5087824;28;43401;-72
2022/12/30 09:18:26;;;;;;;1.17;1.17;;;17.60;67.10;;;;;;5086555;28;43428;-76
2022/12/30 09:20:54;;;;;;;0.70;0.70;;;17.60;67.30;;;;;;5087120;27;43620;-77
2022/12/30 09:23:22;;;;;;;1.97;0.90;;;17.50;67.50;;;;;;5080903;28;43981;-73
2022/12/30 09:25:50;;;;;;;0.80;0.80;;;17.50;67.50;;;;;;5063794;28;43416;-74
2022/12/30 09:28:18;;;;;;;0.90;0.90;;;17.50;67.40;;;;;;5087530;27;43454;-75
2022/12/30 09:30:46;;;;;;;1.20;1.10;;;17.50;67.60;;;;;;5087376;28;43621;-75
2022/12/30 09:33:15;;;;;;;1.10;1.10;;;17.50;67.70;;;;;;5086904;28;43410;-77
2022/12/30 09:35:43;;;;;;;0.90;0.90;;;17.50;67.70;;;;;;5087017;28;43434;-76
2022/12/30 09:38:11;;;;;;;0.80;0.80;;;17.40;67.80;;;;;;5083700;28;43478;-77
2022/12/30 09:40:49;;;;;;;1.17;0.87;;;17.50;68.00;;;;;;5068235;28;45443;-77
2022/12/30 09:43:20;;;;;;;1.63;0.73;;;17.60;67.70;;;;;;5086848;28;43518;-77
2022/12/30 09:45:56;;;;;;;1.10;1.00;;;17.70;67.40;;;;;;5086982;28;43426;-75
2022/12/30 09:48:27;;;;;;;0.90;0.90;;;17.70;67.30;;;;;;5083274;27;43443;-77
2022/12/30 09:50:58;;;;;;;1.10;1.10;;;17.70;67.50;;;;;;5085879;27;43911;-76
2022/12/30 09:53:34;;;;;;;0.77;0.77;;;17.60;67.50;;;;;;5087081;28;43498;-76
2022/12/30 09:56:03;;;;;;;1.07;1.07;;;17.60;67.70;;;;;;5087114;28;43391;-77
2022/12/30 09:58:32;;;;;;;0.97;0.97;;;17.60;67.60;;;;;;5085663;28;43972;-74
2022/12/30 10:01:04;;;;;;;0.80;0.80;;;17.60;67.70;;;;;;5086726;28;43600;-73
2022/12/30 10:03:34;;;;;;;0.80;0.80;;;17.60;67.80;;;;;;5086449;28;44021;-75
2022/12/30 10:06:28;;;;;;;0.90;0.90;;;17.50;67.80;;;;;;5084361;28;43443;-75
2022/12/30 10:09:15;;;;;;;1.10;0.90;;;17.50;68.00;;;;;;5087005;28;44004;-77
2022/12/30 10:11:51;;;;;;;0.80;0.80;;;17.50;68.20;;;;;;5086668;28;44013;-75
2022/12/30 10:14:21;;;;;;;1.20;1.20;;;17.60;67.80;;;;;;5067651;28;44709;-77
2022/12/30 10:16:57;;;;;;;1.40;1.30;;;17.70;67.70;;;;;;5086116;28;43964;-76
2022/12/30 10:19:32;;;;;;;1.00;1.00;;;17.70;67.50;;;;;;5087302;28;43454;-77
2022/12/30 10:22:03;;;;;;;1.30;1.20;;;17.70;67.60;;;;;;5084655;28;43665;-77
2022/12/30 10:24:37;;;;;;;1.20;1.20;;;17.60;67.70;;;;;;5086276;28;44027;-77
2022/12/30 10:27:07;;;;;;;1.53;1.30;;;17.60;67.90;;;;;;5086604;28;43457;-76
2022/12/30 10:29:36;;;;;;;0.93;0.93;;;17.60;67.90;;;;;;5083580;28;43426;-74
2022/12/30 10:32:13;;;;;;;1.27;1.27;;;17.60;67.80;;;;;;5086042;28;43760;-76
2022/12/30 10:34:42;;;;;;;2.07;1.47;;;17.60;67.70;;;;;;5066909;28;44429;-76
2022/12/30 10:37:12;;;;;;;1.27;1.27;;;17.60;67.70;;;;;;5086610;28;43411;-75
2022/12/30 10:39:43;;;;;;;1.70;1.60;;;17.50;67.70;;;;;;5068245;28;43974;-77
2022/12/30 10:42:17;;;;;;;1.60;1.50;;;17.60;68.20;;;;;;5064883;28;45773;-77
2022/12/30 10:44:54;;;;;;;1.57;1.47;;;17.60;68.00;;;;;;5085434;28;43516;-75
2022/12/30 10:47:30;;;;;;;1.40;1.30;;;17.70;67.70;;;;;;5086523;28;43397;-77
2022/12/30 10:50:18;;;;;;;1.43;1.43;;;17.70;67.50;;;;;;5086539;28;44025;-76
2022/12/30 10:52:46;;;;;;;1.30;1.30;;;17.70;67.40;;;;;;5085634;28;44467;-77
2022/12/30 10:55:22;;;;;;;2.87;1.40;;;17.70;67.70;;;;;;5085714;28;43572;-77
2022/12/30 10:57:50;;;;;;;1.10;1.10;;;17.70;68.00;;;;;;5066971;28;43514;-77
2022/12/30 11:00:20;;;;;;;1.67;1.63;;;17.60;67.60;;;;;;5067853;28;43621;-77
2022/12/30 11:02:54;;;;;;;1.33;1.33;;;17.60;67.70;;;;;;5064511;28;45264;-77
2022/12/30 11:05:33;;;;;;;1.27;1.27;;;17.60;67.80;;;;;;5089837;28;43849;-73
2022/12/30 11:08:01;;;;;;;1.27;1.27;;;17.60;68.00;;;;;;5071191;28;43903;-77
2022/12/30 11:10:29;;;;;;;1.37;1.37;;;17.50;68.10;;;;;;5089996;28;43461;-76
2022/12/30 11:15:54;;;;;;;1.40;1.40;;;17.60;68.10;;;;;;5088798;28;43439;-76
2022/12/30 11:18:24;;;;;;;1.30;1.30;;;17.60;68.00;;;;;;5083480;28;43500;-75
2022/12/30 11:20:54;;;;;;;1.67;1.57;;;17.60;68.10;;;;;;5071423;28;43725;-76
2022/12/30 11:23:25;;;;;;;1.20;1.20;;;17.50;68.80;;;;;;5089155;28;43939;-75
2022/12/30 11:25:53;;;;;;;1.40;1.30;;;17.50;68.30;;;;;;5067050;28;44766;-77
2022/12/30 11:28:23;;;;;;;1.27;1.27;;;17.50;68.30;;;;;;5062140;28;43446;-77
2022/12/30 11:30:59;;;;;;;1.50;1.40;;;17.60;68.10;;;;;;5062595;28;43495;-75
2022/12/30 11:33:29;;;;;;;1.40;1.30;;;17.70;67.70;;;;;;5063585;28;43865;-75
2022/12/30 11:36:13;;;;;;;1.40;1.40;;;17.80;67.50;;;;;;5069082;28;43542;-75
2022/12/30 11:38:41;;;;;;;1.47;1.40;;;17.80;67.40;;;;;;5065926;28;43727;-77
2022/12/30 11:41:20;;;;;;;1.30;1.30;;;17.70;67.60;;;;;;5069101;28;43449;-77
2022/12/30 11:43:49;;;;;;;1.33;1.33;;;17.70;67.50;;;;;;5068325;28;43870;-78
2022/12/30 11:46:18;;;;;;;1.50;1.40;;;17.70;67.50;;;;;;5068741;28;43475;-76
2022/12/30 11:48:47;;;;;;;1.07;1.07;;;17.70;67.50;;;;;;5068696;28;44283;-77
2022/12/30 11:51:18;;;;;;;1.23;1.23;;;17.70;67.70;;;;;;5068717;28;43605;-77
2022/12/30 11:53:46;;;;;;;1.57;1.47;;;17.60;67.70;;;;;;5068486;28;43830;-77
2022/12/30 11:56:14;;;;;;;2.03;1.10;;;17.60;68.00;;;;;;5068314;28;43446;-77
2022/12/30 11:58:42;;;;;;;1.30;1.30;;;17.60;67.90;;;;;;5065890;28;43487;-77
2022/12/30 12:01:10;;;;;;;1.30;1.30;;;17.60;67.80;;;;;;5068775;28;44991;-75
2022/12/30 12:03:47;;;;;;;1.20;1.20;;;17.60;67.90;;;;;;5066425;28;45591;-76
2022/12/30 12:06:17;;;;;;;2.23;1.53;;;17.60;68.00;;;;;;5066885;28;45003;-77
2022/12/30 12:08:48;;;;;;;1.47;1.47;;;17.60;68.00;;;;;;5067488;28;43469;-75
2022/12/30 12:11:18;;;;;;;1.30;1.30;;;17.50;68.20;;;;;;5067513;28;43379;-76
2022/12/30 12:13:53;;;;;;;1.20;1.20;;;17.60;68.10;;;;;;5065501;28;45400;-76
2022/12/30 12:16:30;;;;;;;1.20;1.20;;;17.70;67.80;;;;;;5067575;28;44012;-77
2022/12/30 12:19:04;;;;;;;1.40;1.40;;;17.80;67.50;;;;;;5066700;28;43504;-76
2022/12/30 12:21:33;;;;;;;1.40;1.40;;;17.80;67.40;;;;;;5066687;28;43435;-77
2022/12/30 12:24:04;;;;;;;1.30;1.30;;;17.70;67.30;;;;;;5067713;28;43653;-76
2022/12/30 12:26:34;;;;;;;1.43;1.40;;;17.70;67.60;;;;;;5066546;28;43745;-77
2022/12/30 12:29:02;;;;;;;1.60;1.50;;;17.70;67.60;;;;;;5066535;28;43499;-74
2022/12/30 12:31:47;;;;;;;1.60;1.33;;;17.70;67.60;;;;;;5068189;28;44118;-75
2022/12/30 12:34:22;;;;;;;1.23;1.23;;;17.70;67.60;;;;;;5062324;28;43854;-75
2022/12/30 12:36:57;;;;;;;1.00;1.00;;;17.60;67.70;;;;;;5063355;28;43558;-78
2022/12/30 12:39:30;;;;;;;1.13;1.13;;;17.60;67.90;;;;;;5067804;28;43502;-76
2022/12/30 12:42:00;;;;;;;1.27;1.27;;;17.60;68.80;;;;;;5066970;28;43480;-76
2022/12/30 12:45:01;;;;;;;1.27;1.27;;;17.60;68.00;;;;;;5067400;28;43840;-78
2022/12/30 12:47:50;;;;;;;1.47;1.10;;;17.60;68.00;;;;;;5067351;28;43487;-74
2022/12/30 12:50:25;;;;;;;1.03;1.03;;;17.60;68.00;;;;;;5067698;28;43844;-76
2022/12/30 12:53:00;;;;;;;1.33;1.33;;;17.60;68.10;;;;;;5066611;28;43845;-77
2022/12/30 12:55:37;;;;;;;1.10;1.10;;;17.50;68.30;;;;;;5060411;28;43940;-77
2022/12/30 12:58:07;;;;;;;1.13;1.13;;;17.50;68.30;;;;;;5067367;28;43467;-76
2022/12/30 13:00:40;;;;;;;1.20;1.20;;;17.60;68.20;;;;;;5065639;28;43487;-76
2022/12/30 13:03:23;;;;;;;1.10;1.10;;;17.70;67.80;;;;;;5067637;28;43957;-77
2022/12/30 13:05:56;;;;;;;1.10;1.10;;;17.70;67.50;;;;;;5064182;28;45764;-77
2022/12/30 13:08:44;;;;;;;1.30;1.30;;;17.70;67.50;;;;;;5067766;28;43384;-76
2022/12/30 13:11:15;;;;;;;1.20;1.20;;;17.70;67.50;;;;;;5060306;28;43977;-76
2022/12/30 13:14:03;;;;;;;1.23;1.20;;;17.70;67.80;;;;;;5063168;28;43519;-75
2022/12/30 13:16:33;;;;;;;1.23;1.23;;;17.70;67.70;;;;;;5063502;28;45307;-77
2022/12/30 13:19:01;;;;;;;1.07;1.07;;;17.70;67.70;;;;;;5065734;28;44330;-75
2022/12/30 13:21:29;;;;;;;1.07;1.07;;;17.60;67.70;;;;;;5066931;28;43392;-78
2022/12/30 13:24:01;;;;;;;1.00;1.00;;;17.60;67.80;;;;;;5066730;28;43430;-73
2022/12/30 13:26:29;;;;;;;1.10;1.10;;;17.60;68.00;;;;;;5065769;28;43598;-78
2022/12/30 13:28:58;;;;;;;0.90;0.90;;;17.60;68.10;;;;;;5066909;28;44077;-77
2022/12/30 13:31:34;;;;;;;1.20;1.20;;;17.60;68.00;;;;;;5067176;28;43475;-77
2022/12/30 13:34:11;;;;;;;1.30;1.30;;;17.60;68.00;;;;;;5067087;28;43381;-76
2022/12/30 13:36:45;;;;;;;1.00;1.00;;;17.60;68.00;;;;;;5060882;28;43599;-76
2022/12/30 13:39:21;;;;;;;1.00;1.00;;;17.60;68.10;;;;;;5059985;28;44756;-76
2022/12/30 13:42:14;;;;;;;1.30;1.30;;;17.50;68.10;;;;;;5071578;28;43389;-76
2022/12/30 13:44:43;;;;;;;1.30;1.30;;;17.50;68.30;;;;;;5067242;28;43960;-77
2022/12/30 13:47:24;;;;;;;0.93;0.93;;;17.60;68.00;;;;;;5066582;28;43568;-75
2022/12/30 13:49:57;;;;;;;1.00;1.00;;;17.70;67.70;;;;;;5062160;28;43475;-76
2022/12/30 13:52:27;;;;;;;1.10;1.10;;;17.70;67.50;;;;;;5067036;28;43406;-76
2022/12/30 13:54:58;;;;;;;0.90;0.90;;;17.70;67.60;;;;;;5066007;28;43412;-76
2022/12/30 13:57:30;;;;;;;1.20;1.20;;;17.70;67.80;;;;;;5065080;28;45857;-76
2022/12/30 14:00:25;;;;;;;1.10;1.10;;;17.70;67.90;;;;;;5066445;28;43373;-74
2022/12/30 14:02:59;;;;;;;1.13;1.13;;;17.70;67.90;;;;;;5059958;28;43360;-76
2022/12/30 14:05:32;;;;;;;0.90;0.90;;;17.60;67.70;;;;;;5064536;28;43360;-75